sensor_id;sensor_type;location;lat;lon;timestamp;P1;durP1;ratioP1;P2;durP2;ratioP2
19173;SDS011;9719;49.322;8.536;2023-08-30T00:03:38;1.38;;;1.38;;
19173;SDS011;9719;49.322;8.536;2023-08-30T00:08:40;1.20;;;1.20;;
19173;SDS011;9719;49.322;8.536;2023-08-30T00:13:42;1.42;;;1.38;;
19173;SDS011;9719;49.322;8.536;2023-08-30T00:18:44;1.48;;;1.42;;
19173;SDS011;9719;49.322;8.536;2023-08-30T00:23:46;2.22;;;1.60;;
19173;SDS011;9719;49.322;8.536;2023-08-30T00:28:49;2.67;;;2.42;;
19173;SDS011;9719;49.322;8.536;2023-08-30T00:33:51;1.88;;;1.77;;
19173;SDS011;9719;49.322;8.536;2023-08-30T00:38:52;1.75;;;1.65;;
19173;SDS011;9719;49.322;8.536;2023-08-30T00:43:55;1.88;;;1.65;;
19173;SDS011;9719;49.322;8.536;2023-08-30T00:48:57;1.70;;;1.60;;
19173;SDS011;9719;49.322;8.536;2023-08-30T00:53:59;5.47;;;1.30;;
19173;SDS011;9719;49.322;8.536;2023-08-30T00:59:02;1.08;;;1.08;;
19173;SDS011;9719;49.322;8.536;2023-08-30T01:04:04;1.80;;;1.30;;
19173;SDS011;9719;49.322;8.536;2023-08-30T01:09:06;2.72;;;1.48;;
19173;SDS011;9719;49.322;8.536;2023-08-30T01:14:11;1.80;;;1.70;;
19173;SDS011;9719;49.322;8.536;2023-08-30T01:19:20;1.40;;;1.40;;
19173;SDS011;9719;49.322;8.536;2023-08-30T01:24:32;1.30;;;1.30;;
19173;SDS011;9719;49.322;8.536;2023-08-30T01:29:44;1.67;;;1.58;;
19173;SDS011;9719;49.322;8.536;2023-08-30T01:34:47;1.40;;;1.30;;
19173;SDS011;9719;49.322;8.536;2023-08-30T01:39:50;2.20;;;2.00;;
19173;SDS011;9719;49.322;8.536;2023-08-30T01:44:55;1.80;;;1.70;;
19173;SDS011;9719;49.322;8.536;2023-08-30T01:49:59;2.00;;;1.90;;
19173;SDS011;9719;49.322;8.536;2023-08-30T01:55:03;2.05;;;1.92;;
19173;SDS011;9719;49.322;8.536;2023-08-30T02:00:08;1.33;;;1.27;;
19173;SDS011;9719;49.322;8.536;2023-08-30T02:05:11;2.08;;;1.95;;
19173;SDS011;9719;49.322;8.536;2023-08-30T02:10:15;2.05;;;1.65;;
19173;SDS011;9719;49.322;8.536;2023-08-30T02:15:24;2.80;;;2.58;;
19173;SDS011;9719;49.322;8.536;2023-08-30T02:20:26;2.33;;;2.13;;
19173;SDS011;9719;49.322;8.536;2023-08-30T02:25:28;1.92;;;1.83;;
19173;SDS011;9719;49.322;8.536;2023-08-30T02:30:31;1.95;;;1.85;;
19173;SDS011;9719;49.322;8.536;2023-08-30T02:35:33;2.28;;;2.13;;
19173;SDS011;9719;49.322;8.536;2023-08-30T02:40:34;2.10;;;2.00;;
19173;SDS011;9719;49.322;8.536;2023-08-30T02:45:37;4.03;;;2.58;;
19173;SDS011;9719;49.322;8.536;2023-08-30T02:50:39;2.08;;;1.98;;
19173;SDS011;9719;49.322;8.536;2023-08-30T02:55:41;2.53;;;1.92;;
19173;SDS011;9719;49.322;8.536;2023-08-30T03:00:44;3.03;;;2.50;;
19173;SDS011;9719;49.322;8.536;2023-08-30T03:05:45;2.15;;;2.05;;
19173;SDS011;9719;49.322;8.536;2023-08-30T03:10:47;3.25;;;2.20;;
19173;SDS011;9719;49.322;8.536;2023-08-30T03:15:50;3.22;;;2.92;;
19173;SDS011;9719;49.322;8.536;2023-08-30T03:20:59;2.10;;;2.00;;
19173;SDS011;9719;49.322;8.536;2023-08-30T03:26:07;2.33;;;1.83;;
19173;SDS011;9719;49.322;8.536;2023-08-30T03:31:13;2.80;;;2.60;;
19173;SDS011;9719;49.322;8.536;2023-08-30T03:36:16;3.08;;;2.75;;
19173;SDS011;9719;49.322;8.536;2023-08-30T03:41:18;2.00;;;1.90;;
19173;SDS011;9719;49.322;8.536;2023-08-30T03:46:21;5.28;;;2.30;;
19173;SDS011;9719;49.322;8.536;2023-08-30T03:51:23;2.25;;;2.05;;
19173;SDS011;9719;49.322;8.536;2023-08-30T03:56:25;2.20;;;1.83;;
19173;SDS011;9719;49.322;8.536;2023-08-30T04:01:28;2.17;;;2.08;;
19173;SDS011;9719;49.322;8.536;2023-08-30T04:06:29;2.13;;;1.98;;
19173;SDS011;9719;49.322;8.536;2023-08-30T04:11:31;2.30;;;1.95;;
19173;SDS011;9719;49.322;8.536;2023-08-30T04:16:34;2.45;;;2.25;;
19173;SDS011;9719;49.322;8.536;2023-08-30T04:21:35;3.30;;;2.47;;
19173;SDS011;9719;49.322;8.536;2023-08-30T04:26:37;2.97;;;2.78;;
19173;SDS011;9719;49.322;8.536;2023-08-30T04:31:40;2.22;;;2.13;;
19173;SDS011;9719;49.322;8.536;2023-08-30T04:36:44;2.83;;;2.63;;
19173;SDS011;9719;49.322;8.536;2023-08-30T04:41:46;2.03;;;1.92;;
19173;SDS011;9719;49.322;8.536;2023-08-30T04:46:49;2.58;;;2.38;;
19173;SDS011;9719;49.322;8.536;2023-08-30T04:51:52;8.10;;;2.63;;
19173;SDS011;9719;49.322;8.536;2023-08-30T04:56:53;3.35;;;3.05;;
19173;SDS011;9719;49.322;8.536;2023-08-30T05:01:56;2.55;;;2.35;;
19173;SDS011;9719;49.322;8.536;2023-08-30T05:06:58;2.13;;;2.03;;
19173;SDS011;9719;49.322;8.536;2023-08-30T05:12:00;2.28;;;2.08;;
19173;SDS011;9719;49.322;8.536;2023-08-30T05:17:03;2.65;;;2.40;;
19173;SDS011;9719;49.322;8.536;2023-08-30T05:22:05;2.33;;;2.22;;
19173;SDS011;9719;49.322;8.536;2023-08-30T05:27:07;2.65;;;2.35;;
19173;SDS011;9719;49.322;8.536;2023-08-30T05:32:10;3.63;;;2.50;;
19173;SDS011;9719;49.322;8.536;2023-08-30T05:37:12;2.78;;;2.45;;
19173;SDS011;9719;49.322;8.536;2023-08-30T05:42:13;2.28;;;2.08;;
19173;SDS011;9719;49.322;8.536;2023-08-30T05:47:16;2.42;;;2.30;;
19173;SDS011;9719;49.322;8.536;2023-08-30T05:52:19;2.58;;;2.38;;
19173;SDS011;9719;49.322;8.536;2023-08-30T05:57:20;2.78;;;2.53;;
19173;SDS011;9719;49.322;8.536;2023-08-30T06:02:25;3.28;;;2.00;;
19173;SDS011;9719;49.322;8.536;2023-08-30T06:07:26;2.85;;;2.60;;
19173;SDS011;9719;49.322;8.536;2023-08-30T06:12:28;3.60;;;2.85;;
19173;SDS011;9719;49.322;8.536;2023-08-30T06:17:31;2.35;;;2.15;;
19173;SDS011;9719;49.322;8.536;2023-08-30T06:22:33;7.28;;;2.15;;
19173;SDS011;9719;49.322;8.536;2023-08-30T06:27:40;2.30;;;2.20;;
19173;SDS011;9719;49.322;8.536;2023-08-30T06:32:44;2.78;;;2.03;;
19173;SDS011;9719;49.322;8.536;2023-08-30T06:37:46;2.20;;;2.00;;
19173;SDS011;9719;49.322;8.536;2023-08-30T06:42:47;2.83;;;2.63;;
19173;SDS011;9719;49.322;8.536;2023-08-30T06:47:50;2.28;;;2.08;;
19173;SDS011;9719;49.322;8.536;2023-08-30T06:52:52;2.10;;;2.00;;
19173;SDS011;9719;49.322;8.536;2023-08-30T06:57:54;2.47;;;2.28;;
19173;SDS011;9719;49.322;8.536;2023-08-30T07:02:57;2.58;;;2.42;;
19173;SDS011;9719;49.322;8.536;2023-08-30T07:07:59;2.97;;;2.78;;
19173;SDS011;9719;49.322;8.536;2023-08-30T07:13:02;2.60;;;2.22;;
19173;SDS011;9719;49.322;8.536;2023-08-30T07:18:11;2.60;;;2.40;;
19173;SDS011;9719;49.322;8.536;2023-08-30T07:23:13;3.55;;;2.90;;
19173;SDS011;9719;49.322;8.536;2023-08-30T07:28:14;2.75;;;2.25;;
19173;SDS011;9719;49.322;8.536;2023-08-30T07:33:17;2.33;;;2.13;;
19173;SDS011;9719;49.322;8.536;2023-08-30T07:38:19;3.10;;;2.88;;
19173;SDS011;9719;49.322;8.536;2023-08-30T07:43:21;2.53;;;2.33;;
19173;SDS011;9719;49.322;8.536;2023-08-30T07:48:24;2.33;;;2.20;;
19173;SDS011;9719;49.322;8.536;2023-08-30T07:53:25;3.22;;;2.47;;
19173;SDS011;9719;49.322;8.536;2023-08-30T07:58:27;2.40;;;2.20;;
19173;SDS011;9719;49.322;8.536;2023-08-30T08:03:30;2.38;;;2.13;;
19173;SDS011;9719;49.322;8.536;2023-08-30T08:08:32;2.35;;;2.15;;
19173;SDS011;9719;49.322;8.536;2023-08-30T08:13:34;2.13;;;1.63;;
19173;SDS011;9719;49.322;8.536;2023-08-30T08:18:37;1.63;;;1.52;;
19173;SDS011;9719;49.322;8.536;2023-08-30T08:23:38;3.35;;;3.08;;
19173;SDS011;9719;49.322;8.536;2023-08-30T08:28:40;2.00;;;1.90;;
19173;SDS011;9719;49.322;8.536;2023-08-30T08:33:43;6.53;;;3.05;;
19173;SDS011;9719;49.322;8.536;2023-08-30T08:38:45;2.15;;;2.05;;
19173;SDS011;9719;49.322;8.536;2023-08-30T08:43:46;1.63;;;1.52;;
19173;SDS011;9719;49.322;8.536;2023-08-30T08:48:50;2.58;;;2.38;;
19173;SDS011;9719;49.322;8.536;2023-08-30T08:53:53;1.73;;;1.60;;
19173;SDS011;9719;49.322;8.536;2023-08-30T08:59:01;1.90;;;1.67;;
19173;SDS011;9719;49.322;8.536;2023-08-30T09:04:05;2.90;;;2.40;;
19173;SDS011;9719;49.322;8.536;2023-08-30T09:09:08;3.25;;;2.55;;
19173;SDS011;9719;49.322;8.536;2023-08-30T09:14:10;4.00;;;2.03;;
19173;SDS011;9719;49.322;8.536;2023-08-30T09:19:13;1.85;;;1.75;;
19173;SDS011;9719;49.322;8.536;2023-08-30T09:24:21;1.67;;;1.58;;
19173;SDS011;9719;49.322;8.536;2023-08-30T09:29:23;2.35;;;2.25;;
19173;SDS011;9719;49.322;8.536;2023-08-30T09:34:26;2.42;;;2.15;;
19173;SDS011;9719;49.322;8.536;2023-08-30T09:39:27;2.22;;;1.83;;
19173;SDS011;9719;49.322;8.536;2023-08-30T09:44:29;2.10;;;2.00;;
19173;SDS011;9719;49.322;8.536;2023-08-30T09:49:34;4.70;;;1.92;;
19173;SDS011;9719;49.322;8.536;2023-08-30T09:54:43;1.58;;;1.48;;
19173;SDS011;9719;49.322;8.536;2023-08-30T09:59:47;1.70;;;1.60;;
19173;SDS011;9719;49.322;8.536;2023-08-30T10:04:51;2.38;;;2.15;;
19173;SDS011;9719;49.322;8.536;2023-08-30T10:09:53;2.67;;;1.50;;
19173;SDS011;9719;49.322;8.536;2023-08-30T10:14:57;1.50;;;1.40;;
19173;SDS011;9719;49.322;8.536;2023-08-30T10:20:02;1.85;;;1.75;;
19173;SDS011;9719;49.322;8.536;2023-08-30T10:25:06;3.13;;;1.77;;
19173;SDS011;9719;49.322;8.536;2023-08-30T10:30:11;2.17;;;1.98;;
19173;SDS011;9719;49.322;8.536;2023-08-30T10:35:16;1.70;;;1.60;;
19173;SDS011;9719;49.322;8.536;2023-08-30T10:40:19;1.73;;;1.63;;
19173;SDS011;9719;49.322;8.536;2023-08-30T10:45:23;1.75;;;1.60;;
19173;SDS011;9719;49.322;8.536;2023-08-30T10:50:29;1.02;;;0.93;;
19173;SDS011;9719;49.322;8.536;2023-08-30T10:55:32;1.60;;;1.50;;
19173;SDS011;9719;49.322;8.536;2023-08-30T11:00:33;3.13;;;1.40;;
19173;SDS011;9719;49.322;8.536;2023-08-30T11:05:40;1.13;;;1.13;;
19173;SDS011;9719;49.322;8.536;2023-08-30T11:10:42;2.30;;;2.10;;
19173;SDS011;9719;49.322;8.536;2023-08-30T11:15:44;1.05;;;1.05;;
19173;SDS011;9719;49.322;8.536;2023-08-30T11:20:47;1.27;;;1.17;;
19173;SDS011;9719;49.322;8.536;2023-08-30T11:25:50;4.07;;;1.55;;
19173;SDS011;9719;49.322;8.536;2023-08-30T11:30:52;1.20;;;1.10;;
19173;SDS011;9719;49.322;8.536;2023-08-30T11:35:55;1.00;;;1.00;;
19173;SDS011;9719;49.322;8.536;2023-08-30T11:40:57;1.30;;;1.20;;
19173;SDS011;9719;49.322;8.536;2023-08-30T11:45:59;3.05;;;1.42;;
19173;SDS011;9719;49.322;8.536;2023-08-30T11:51:03;1.40;;;1.30;;
19173;SDS011;9719;49.322;8.536;2023-08-30T11:56:05;1.05;;;1.05;;
19173;SDS011;9719;49.322;8.536;2023-08-30T12:01:07;1.38;;;1.25;;
19173;SDS011;9719;49.322;8.536;2023-08-30T12:06:10;0.85;;;0.85;;
19173;SDS011;9719;49.322;8.536;2023-08-30T12:11:18;0.90;;;0.90;;
19173;SDS011;9719;49.322;8.536;2023-08-30T12:16:20;1.48;;;1.00;;
19173;SDS011;9719;49.322;8.536;2023-08-30T12:21:23;0.90;;;0.90;;
19173;SDS011;9719;49.322;8.536;2023-08-30T12:26:31;0.80;;;0.80;;
19173;SDS011;9719;49.322;8.536;2023-08-30T12:31:33;1.02;;;0.95;;
19173;SDS011;9719;49.322;8.536;2023-08-30T12:36:36;1.30;;;1.20;;
19173;SDS011;9719;49.322;8.536;2023-08-30T12:41:38;1.13;;;1.10;;
19173;SDS011;9719;49.322;8.536;2023-08-30T12:46:42;0.60;;;0.60;;
19173;SDS011;9719;49.322;8.536;2023-08-30T12:51:45;1.73;;;1.27;;
19173;SDS011;9719;49.322;8.536;2023-08-30T12:56:47;1.40;;;1.30;;
19173;SDS011;9719;49.322;8.536;2023-08-30T13:01:49;0.80;;;0.80;;
19173;SDS011;9719;49.322;8.536;2023-08-30T13:06:52;0.93;;;0.90;;
19173;SDS011;9719;49.322;8.536;2023-08-30T13:11:53;1.15;;;1.05;;
19173;SDS011;9719;49.322;8.536;2023-08-30T13:16:55;0.80;;;0.80;;
19173;SDS011;9719;49.322;8.536;2023-08-30T13:21:58;0.98;;;0.90;;
19173;SDS011;9719;49.322;8.536;2023-08-30T13:26:59;0.80;;;0.80;;
19173;SDS011;9719;49.322;8.536;2023-08-30T13:32:01;2.10;;;1.02;;
19173;SDS011;9719;49.322;8.536;2023-08-30T13:37:05;0.73;;;0.73;;
19173;SDS011;9719;49.322;8.536;2023-08-30T13:42:07;1.13;;;0.68;;
19173;SDS011;9719;49.322;8.536;2023-08-30T13:47:09;5.18;;;1.20;;
19173;SDS011;9719;49.322;8.536;2023-08-30T13:52:12;0.80;;;0.70;;
19173;SDS011;9719;49.322;8.536;2023-08-30T13:57:14;0.73;;;0.73;;
19173;SDS011;9719;49.322;8.536;2023-08-30T14:02:15;0.77;;;0.70;;
19173;SDS011;9719;49.322;8.536;2023-08-30T14:07:18;2.17;;;1.15;;
19173;SDS011;9719;49.322;8.536;2023-08-30T14:12:20;0.95;;;0.95;;
19173;SDS011;9719;49.322;8.536;2023-08-30T14:17:22;3.88;;;1.05;;
19173;SDS011;9719;49.322;8.536;2023-08-30T14:22:25;0.70;;;0.70;;
19173;SDS011;9719;49.322;8.536;2023-08-30T14:27:26;1.25;;;0.70;;
19173;SDS011;9719;49.322;8.536;2023-08-30T14:32:28;0.80;;;0.80;;
19173;SDS011;9719;49.322;8.536;2023-08-30T14:37:31;1.08;;;0.75;;
19173;SDS011;9719;49.322;8.536;2023-08-30T14:42:34;0.80;;;0.80;;
19173;SDS011;9719;49.322;8.536;2023-08-30T14:47:37;1.30;;;0.80;;
19173;SDS011;9719;49.322;8.536;2023-08-30T14:52:40;0.82;;;0.68;;
19173;SDS011;9719;49.322;8.536;2023-08-30T14:57:42;1.63;;;0.90;;
19173;SDS011;9719;49.322;8.536;2023-08-30T15:02:43;1.30;;;0.70;;
19173;SDS011;9719;49.322;8.536;2023-08-30T15:07:46;1.08;;;1.00;;
19173;SDS011;9719;49.322;8.536;2023-08-30T15:12:48;0.98;;;0.88;;
19173;SDS011;9719;49.322;8.536;2023-08-30T15:17:50;1.10;;;1.00;;
19173;SDS011;9719;49.322;8.536;2023-08-30T15:22:53;1.00;;;0.70;;
19173;SDS011;9719;49.322;8.536;2023-08-30T15:27:56;1.02;;;0.80;;
19173;SDS011;9719;49.322;8.536;2023-08-30T15:32:57;0.60;;;0.60;;
19173;SDS011;9719;49.322;8.536;2023-08-30T15:38:00;3.50;;;1.13;;
19173;SDS011;9719;49.322;8.536;2023-08-30T15:43:04;0.70;;;0.70;;
19173;SDS011;9719;49.322;8.536;2023-08-30T15:48:06;1.17;;;1.10;;
19173;SDS011;9719;49.322;8.536;2023-08-30T15:53:09;0.70;;;0.70;;
19173;SDS011;9719;49.322;8.536;2023-08-30T15:58:11;3.60;;;0.80;;
19173;SDS011;9719;49.322;8.536;2023-08-30T16:03:12;1.65;;;1.48;;
19173;SDS011;9719;49.322;8.536;2023-08-30T16:08:16;1.17;;;1.08;;
19173;SDS011;9719;49.322;8.536;2023-08-30T16:13:18;1.48;;;0.95;;
19173;SDS011;9719;49.322;8.536;2023-08-30T16:18:20;2.30;;;1.20;;
19173;SDS011;9719;49.322;8.536;2023-08-30T16:23:23;1.33;;;1.05;;
19173;SDS011;9719;49.322;8.536;2023-08-30T16:28:24;1.10;;;0.93;;
19173;SDS011;9719;49.322;8.536;2023-08-30T16:33:26;0.60;;;0.60;;
19173;SDS011;9719;49.322;8.536;2023-08-30T16:38:29;1.30;;;1.20;;
19173;SDS011;9719;49.322;8.536;2023-08-30T16:43:32;0.85;;;0.80;;
19173;SDS011;9719;49.322;8.536;2023-08-30T16:48:34;1.13;;;1.02;;
19173;SDS011;9719;49.322;8.536;2023-08-30T16:53:37;1.10;;;1.00;;
19173;SDS011;9719;49.322;8.536;2023-08-30T16:58:39;1.55;;;1.40;;
19173;SDS011;9719;49.322;8.536;2023-08-30T17:03:40;1.70;;;1.60;;
19173;SDS011;9719;49.322;8.536;2023-08-30T17:08:43;1.02;;;1.02;;
19173;SDS011;9719;49.322;8.536;2023-08-30T17:13:45;1.10;;;1.08;;
19173;SDS011;9719;49.322;8.536;2023-08-30T17:18:47;0.90;;;0.90;;
19173;SDS011;9719;49.322;8.536;2023-08-30T17:23:50;2.03;;;1.05;;
19173;SDS011;9719;49.322;8.536;2023-08-30T17:28:51;1.40;;;1.30;;
19173;SDS011;9719;49.322;8.536;2023-08-30T17:33:53;1.00;;;1.00;;
19173;SDS011;9719;49.322;8.536;2023-08-30T17:38:56;2.47;;;1.35;;
19173;SDS011;9719;49.322;8.536;2023-08-30T17:43:57;1.50;;;1.40;;
19173;SDS011;9719;49.322;8.536;2023-08-30T17:48:59;1.08;;;0.93;;
19173;SDS011;9719;49.322;8.536;2023-08-30T17:54:02;1.83;;;1.50;;
19173;SDS011;9719;49.322;8.536;2023-08-30T17:59:05;1.52;;;1.40;;
19173;SDS011;9719;49.322;8.536;2023-08-30T18:04:06;1.75;;;1.10;;
19173;SDS011;9719;49.322;8.536;2023-08-30T18:09:09;1.45;;;1.30;;
19173;SDS011;9719;49.322;8.536;2023-08-30T18:14:11;1.38;;;1.27;;
19173;SDS011;9719;49.322;8.536;2023-08-30T18:19:13;2.67;;;1.25;;
19173;SDS011;9719;49.322;8.536;2023-08-30T18:24:16;1.58;;;1.25;;
19173;SDS011;9719;49.322;8.536;2023-08-30T18:29:19;6.78;;;1.98;;
19173;SDS011;9719;49.322;8.536;2023-08-30T18:34:23;0.80;;;0.80;;
19173;SDS011;9719;49.322;8.536;2023-08-30T18:39:28;1.35;;;1.23;;
19173;SDS011;9719;49.322;8.536;2023-08-30T18:44:31;0.90;;;0.90;;
19173;SDS011;9719;49.322;8.536;2023-08-30T18:49:33;1.42;;;1.13;;
19173;SDS011;9719;49.322;8.536;2023-08-30T18:54:36;0.68;;;0.65;;
19173;SDS011;9719;49.322;8.536;2023-08-30T18:59:43;0.68;;;0.68;;
19173;SDS011;9719;49.322;8.536;2023-08-30T19:04:45;2.10;;;1.20;;
19173;SDS011;9719;49.322;8.536;2023-08-30T19:09:48;0.77;;;0.77;;
19173;SDS011;9719;49.322;8.536;2023-08-30T19:14:49;0.70;;;0.70;;
19173;SDS011;9719;49.322;8.536;2023-08-30T19:19:51;3.10;;;1.17;;
19173;SDS011;9719;49.322;8.536;2023-08-30T19:24:55;1.20;;;1.05;;
19173;SDS011;9719;49.322;8.536;2023-08-30T19:29:56;0.82;;;0.82;;
19173;SDS011;9719;49.322;8.536;2023-08-30T19:34:58;1.85;;;0.98;;
19173;SDS011;9719;49.322;8.536;2023-08-30T19:40:01;0.60;;;0.60;;
19173;SDS011;9719;49.322;8.536;2023-08-30T19:45:04;0.70;;;0.70;;
19173;SDS011;9719;49.322;8.536;2023-08-30T19:50:08;0.70;;;0.70;;
19173;SDS011;9719;49.322;8.536;2023-08-30T19:55:11;1.10;;;0.98;;
19173;SDS011;9719;49.322;8.536;2023-08-30T20:00:14;0.73;;;0.73;;
19173;SDS011;9719;49.322;8.536;2023-08-30T20:05:15;1.30;;;0.95;;
19173;SDS011;9719;49.322;8.536;2023-08-30T20:10:18;0.93;;;0.93;;
19173;SDS011;9719;49.322;8.536;2023-08-30T20:15:20;1.05;;;0.70;;
19173;SDS011;9719;49.322;8.536;2023-08-30T20:20:26;1.00;;;1.00;;
19173;SDS011;9719;49.322;8.536;2023-08-30T20:25:29;0.85;;;0.85;;
19173;SDS011;9719;49.322;8.536;2023-08-30T20:30:31;1.08;;;0.98;;
19173;SDS011;9719;49.322;8.536;2023-08-30T20:35:35;1.23;;;0.68;;
19173;SDS011;9719;49.322;8.536;2023-08-30T20:40:43;0.88;;;0.88;;
19173;SDS011;9719;49.322;8.536;2023-08-30T20:45:45;0.88;;;0.88;;
19173;SDS011;9719;49.322;8.536;2023-08-30T20:50:47;2.00;;;1.10;;
19173;SDS011;9719;49.322;8.536;2023-08-30T20:55:51;1.85;;;0.50;;
19173;SDS011;9719;49.322;8.536;2023-08-30T21:00:55;0.95;;;0.95;;
19173;SDS011;9719;49.322;8.536;2023-08-30T21:05:57;0.60;;;0.60;;
19173;SDS011;9719;49.322;8.536;2023-08-30T21:11:00;0.70;;;0.70;;
19173;SDS011;9719;49.322;8.536;2023-08-30T21:16:02;0.88;;;0.70;;
19173;SDS011;9719;49.322;8.536;2023-08-30T21:21:04;1.73;;;1.05;;
19173;SDS011;9719;49.322;8.536;2023-08-30T21:26:07;0.77;;;0.75;;
19173;SDS011;9719;49.322;8.536;2023-08-30T21:31:09;0.70;;;0.70;;
19173;SDS011;9719;49.322;8.536;2023-08-30T21:36:11;1.33;;;1.23;;
19173;SDS011;9719;49.322;8.536;2023-08-30T21:41:14;1.00;;;1.00;;
19173;SDS011;9719;49.322;8.536;2023-08-30T21:46:16;1.13;;;1.10;;
19173;SDS011;9719;49.322;8.536;2023-08-30T21:51:19;0.73;;;0.70;;
19173;SDS011;9719;49.322;8.536;2023-08-30T21:56:22;0.55;;;0.55;;
19173;SDS011;9719;49.322;8.536;2023-08-30T22:01:24;1.50;;;0.90;;
19173;SDS011;9719;49.322;8.536;2023-08-30T22:06:25;1.20;;;0.85;;
19173;SDS011;9719;49.322;8.536;2023-08-30T22:11:28;1.13;;;1.13;;
19173;SDS011;9719;49.322;8.536;2023-08-30T22:16:31;0.98;;;0.90;;
19173;SDS011;9719;49.322;8.536;2023-08-30T22:21:33;0.65;;;0.65;;
19173;SDS011;9719;49.322;8.536;2023-08-30T22:26:36;1.73;;;0.93;;
19173;SDS011;9719;49.322;8.536;2023-08-30T22:31:38;1.25;;;1.15;;
19173;SDS011;9719;49.322;8.536;2023-08-30T22:36:39;0.65;;;0.65;;
19173;SDS011;9719;49.322;8.536;2023-08-30T22:41:42;1.85;;;0.60;;
19173;SDS011;9719;49.322;8.536;2023-08-30T22:46:45;0.82;;;0.80;;
19173;SDS011;9719;49.322;8.536;2023-08-30T22:51:46;2.78;;;1.13;;
19173;SDS011;9719;49.322;8.536;2023-08-30T22:56:50;0.50;;;0.50;;
19173;SDS011;9719;49.322;8.536;2023-08-30T23:01:51;0.75;;;0.68;;
19173;SDS011;9719;49.322;8.536;2023-08-30T23:06:53;0.80;;;0.80;;
19173;SDS011;9719;49.322;8.536;2023-08-30T23:11:56;0.70;;;0.70;;
19173;SDS011;9719;49.322;8.536;2023-08-30T23:16:58;0.93;;;0.85;;
19173;SDS011;9719;49.322;8.536;2023-08-30T23:21:59;2.08;;;1.02;;
19173;SDS011;9719;49.322;8.536;2023-08-30T23:27:02;1.00;;;1.00;;
19173;SDS011;9719;49.322;8.536;2023-08-30T23:32:04;0.90;;;0.90;;
19173;SDS011;9719;49.322;8.536;2023-08-30T23:37:08;1.40;;;1.33;;
19173;SDS011;9719;49.322;8.536;2023-08-30T23:42:11;0.80;;;0.70;;
19173;SDS011;9719;49.322;8.536;2023-08-30T23:47:13;1.25;;;1.23;;
19173;SDS011;9719;49.322;8.536;2023-08-30T23:52:15;1.15;;;1.05;;
19173;SDS011;9719;49.322;8.536;2023-08-30T23:57:18;1.30;;;1.10;;
